Marilyn M — WDH6367 — position and weather

sailwx.info

Track history (hours):
 
Tides and Currents Weather Stations Pressure Air Temp Water Temp Dewpoint Dewpoint Depression Visibility Wind Speed Wind Dir Waves Ship Positions

Marilyn M

Owner: Offshore Oil Services Inc., Clute, TX. More information available from US FCC via Universal Licensing System and Coast Guard Vessel Documentation Center.

Last reported at 2017-Nov-19 09:06 UTC. Time now 2017-Nov-21 02:36 UTC.
Position N 29°47' W 092°11'.

Length 45 m; draft 3 m.

Type: Passenger vessel. MMSI: 367637210.

Date/timePositionNaut miles runAvg speedWind from/ knotsBaromVisibWave heightAir tempDewpointWater temp
2017-Nov-19 09:06N 29°47' W 092°11'0 0.1
2017-Nov-19 09:01N 29°47' W 092°11'0 0.0
2017-Nov-19 08:30N 29°47' W 092°11'0 0.0
2017-Nov-19 08:00N 29°47' W 092°11'0 0.0
2017-Nov-19 07:31N 29°47' W 092°11'0 0.0
2017-Nov-19 07:01N 29°47' W 092°11'0 0.0
2017-Nov-19 06:31N 29°47' W 092°11'0 0.0
2017-Nov-19 06:00N 29°47' W 092°11'0 0.0
2017-Nov-19 05:31N 29°47' W 092°11'0 0.0
2017-Nov-19 05:00N 29°47' W 092°11'0 0.0
2017-Nov-19 04:30N 29°47' W 092°11'0 0.0
2017-Nov-19 04:00N 29°47' W 092°11'0 0.1
2017-Nov-19 03:30N 29°47' W 092°11'0 0.1
2017-Nov-19 03:00N 29°47' W 092°11'0 0.2
2017-Nov-19 02:30N 29°47' W 092°11'4 7.2
2017-Nov-19 02:00N 29°44' W 092°14'5 9.7
2017-Nov-19 01:31N 29°39' W 092°16'1 0.1
2017-Nov-18 14:33N 29°41' W 092°15'0 9.4
2017-Nov-18 14:30N 29°41' W 092°15'4 8.5
2017-Nov-18 14:00N 29°45' W 092°13'3 5.4
2017-Nov-18 13:31N 29°47' W 092°11'0 0.0
2017-Nov-18 13:01N 29°47' W 092°11'0 0.0
2017-Nov-18 12:30N 29°47' W 092°11'0 0.0
2017-Nov-18 12:01N 29°47' W 092°11'0 0.0
2017-Nov-18 11:30N 29°47' W 092°11'0 0.0
2017-Nov-18 09:07N 29°47' W 092°11'0 0.0
2017-Nov-18 09:00N 29°47' W 092°11'0 0.0
2017-Nov-18 08:30N 29°47' W 092°11'0 0.0
2017-Nov-18 08:00N 29°47' W 092°11'0 0.3
2017-Nov-18 07:30N 29°47' W 092°11'0 0.0
2017-Nov-18 07:00N 29°47' W 092°11'0 0.0
2017-Nov-18 06:30N 29°47' W 092°11'0 0.0
2017-Nov-18 06:00N 29°47' W 092°11'0 0.3
2017-Nov-18 05:30N 29°47' W 092°11'0 0.0
2017-Nov-18 05:00N 29°47' W 092°11'0 0.0
2017-Nov-18 04:30N 29°47' W 092°11'0 0.0
2017-Nov-18 04:00N 29°47' W 092°11'0 0.0
2017-Nov-18 03:30N 29°47' W 092°11'0 0.0
2017-Nov-18 03:00N 29°47' W 092°11'0 0.0
2017-Nov-18 02:30N 29°47' W 092°11'0 0.0
2017-Nov-18 02:00N 29°47' W 092°11'0 0.0
2017-Nov-18 01:30N 29°47' W 092°11'0 0.0
2017-Nov-18 01:00N 29°47' W 092°11'0 0.0
2017-Nov-18 00:30N 29°47' W 092°11'0 0.0
2017-Nov-18 00:00N 29°47' W 092°11'0 0.1
2017-Nov-17 23:30N 29°47' W 092°11'2 3.5
2017-Nov-17 23:00N 29°45' W 092°12'5 9.0
2017-Nov-17 22:30N 29°42' W 092°15'6 0.7
2017-Nov-17 13:29N 29°36' W 092°18'4 8.8
2017-Nov-17 13:00N 29°40' W 092°16'5 9.2
2017-Nov-17 12:31N 29°44' W 092°14'4 8.2
2017-Nov-17 12:00N 29°47' W 092°11'0 0.9
2017-Nov-17 11:31N 29°47' W 092°11'0 0.0
2017-Nov-17 11:01N 29°47' W 092°11'0 0.0
2017-Nov-17 10:31N 29°47' W 092°11'0 0.0
2017-Nov-17 10:00N 29°47' W 092°11'0 0.1
2017-Nov-17 09:05N 29°47' W 092°11'0 0.1
2017-Nov-17 09:00N 29°47' W 092°11'0 0.0
2017-Nov-17 08:30N 29°47' W 092°11'0 0.0
2017-Nov-17 08:01N 29°47' W 092°11'0 0.0
2017-Nov-17 07:30N 29°47' W 092°11'0 0.0
2017-Nov-17 07:01N 29°47' W 092°11'0 0.0
2017-Nov-17 06:30N 29°47' W 092°11'0 0.0
2017-Nov-17 06:00N 29°47' W 092°11'0 0.0
2017-Nov-17 05:30N 29°47' W 092°11'0 0.0
2017-Nov-17 05:01N 29°47' W 092°11'0 0.0
2017-Nov-17 04:30N 29°47' W 092°11'0 0.0
2017-Nov-17 04:01N 29°47' W 092°11'0 0.0
2017-Nov-17 03:30N 29°47' W 092°11'0 0.0
2017-Nov-17 03:00N 29°47' W 092°11'0 0.0
2017-Nov-17 02:31N 29°47' W 092°11'0 0.0
2017-Nov-17 02:00N 29°47' W 092°11'0 0.0
2017-Nov-17 01:30N 29°47' W 092°11'0 0.0
2017-Nov-17 01:00N 29°47' W 092°11'0 0.0
2017-Nov-17 00:30N 29°47' W 092°11'0 0.0
2017-Nov-17 00:00N 29°47' W 092°11'0 0.0
2017-Nov-16 23:31N 29°47' W 092°11'0 0.0
2017-Nov-16 16:40N 29°47' W 092°11'0 0.1
2017-Nov-16 16:31N 29°47' W 092°11'0 0.0
2017-Nov-16 16:01N 29°47' W 092°11'0 0.0
2017-Nov-16 15:31N 29°47' W 092°11'0 0.0
2017-Nov-16 15:01N 29°47' W 092°11'0 0.0
2017-Nov-16 14:30N 29°47' W 092°11'0 0.1
2017-Nov-16 14:01N 29°47' W 092°11'0 0.0
2017-Nov-16 13:31N 29°47' W 092°11'1 1.6
2017-Nov-16 13:01N 29°46' W 092°10'5 9.2
2017-Nov-16 12:30N 29°44' W 092°15'5 9.5
2017-Nov-16 12:00N 29°39' W 092°16'5 9.6
2017-Nov-16 11:30N 29°35' W 092°18'3 5.9
2017-Nov-16 10:58N 29°31' W 092°19'4 0.6
2017-Nov-16 03:36N 29°36' W 092°18'2 9.7
2017-Nov-16 03:27N 29°37' W 092°17'4 9.6
2017-Nov-16 03:00N 29°41' W 092°15'5 9.3
2017-Nov-16 02:30N 29°45' W 092°13'2 4.3
2017-Nov-16 02:00N 29°47' W 092°11'0 0.0
2017-Nov-16 01:30N 29°47' W 092°11'0 0.0
2017-Nov-16 01:00N 29°47' W 092°11'0 0.0
2017-Nov-16 00:30N 29°47' W 092°11'0 0.0
2017-Nov-16 00:00N 29°47' W 092°11'0 0.1
2017-Nov-15 23:30N 29°47' W 092°11'0 0.0
2017-Nov-14 14:26N 29°47' W 092°11'2 5.0
2017-Nov-14 14:00N 29°45' W 092°13'5 9.5
2017-Nov-14 13:30N 29°41' W 092°15'5 9.7
2017-Nov-14 13:00N 29°36' W 092°17'1 0.1
2017-Nov-14 05:29N 29°37' W 092°17'5 9.5
2017-Nov-14 04:59N 29°42' W 092°15'4 9.0
2017-Nov-14 04:29N 29°45' W 092°12'2 3.3
2017-Nov-14 03:59N 29°47' W 092°11'0 0.0
2017-Nov-14 03:29N 29°47' W 092°11'0 0.0
2017-Nov-14 02:59N 29°47' W 092°11'0 0.0
2017-Nov-14 02:29N 29°47' W 092°11'0 0.0
2017-Nov-14 01:59N 29°47' W 092°11'0 0.1
2017-Nov-14 01:30N 29°47' W 092°11'0 0.0
2017-Nov-14 01:00N 29°47' W 092°11'0 0.0
2017-Nov-14 00:30N 29°47' W 092°11'0 0.1
2017-Nov-13 23:59N 29°47' W 092°11'0 0.0
2017-Nov-13 23:29N 29°47' W 092°11'0 0.0
2017-Nov-13 22:59N 29°47' W 092°11'0 0.0
2017-Nov-13 22:30N 29°47' W 092°11'0 0.0
2017-Nov-13 22:00N 29°47' W 092°11'7 0.3
2017-Nov-12 21:46N 29°41' W 092°15'310.2
2017-Nov-12 21:29N 29°43' W 092°15'5 9.7
2017-Nov-12 21:00N 29°46' W 092°10'1 1.6
2017-Nov-12 20:30N 29°47' W 092°11'0 0.0
2017-Nov-11 08:49N 29°47' W 092°11'0 0.0
2017-Nov-11 08:29N 29°47' W 092°11'0 0.0
2017-Nov-11 05:25N 29°47' W 092°11'0 0.0
2017-Nov-11 04:59N 29°47' W 092°11'0 0.0
2017-Nov-11 04:29N 29°47' W 092°11'0 0.0
2017-Nov-11 03:59N 29°47' W 092°11'0 0.0
2017-Nov-11 03:29N 29°47' W 092°11'11 0.9
2017-Nov-10 15:11N 29°37' W 092°16'3 9.1
2017-Nov-10 14:54N 29°40' W 092°15'4 9.7
2017-Nov-10 14:30N 29°43' W 092°15'5 9.7
2017-Nov-10 14:00N 29°46' W 092°10'1 1.6
2017-Nov-10 13:30N 29°47' W 092°11'0 0.0
2017-Nov-10 13:00N 29°47' W 092°11'0 0.0
2017-Nov-10 12:30N 29°47' W 092°11'0 0.0
2017-Nov-10 12:00N 29°47' W 092°11'0 0.0
2017-Nov-10 11:30N 29°47' W 092°11'0 0.0
2017-Nov-10 11:00N 29°47' W 092°11'0 0.0
2017-Nov-10 09:46N 29°47' W 092°11'0 0.0
2017-Nov-10 09:30N 29°47' W 092°11'1 1.6
2017-Nov-10 09:00N 29°46' W 092°11'5 9.6
2017-Nov-10 08:30N 29°43' W 092°15'5 9.4
2017-Nov-10 08:01N 29°38' W 092°16'2 0.2
2017-Nov-09 23:33N 29°36' W 092°17'0 9.7
2017-Nov-09 23:30N 29°37' W 092°17'5 9.3
2017-Nov-09 23:01N 29°41' W 092°15'4 8.6
2017-Nov-09 22:31N 29°45' W 092°13'2 4.7
2017-Nov-09 22:01N 29°47' W 092°11'0 0.0
2017-Nov-09 21:31N 29°47' W 092°11'0 0.0
2017-Nov-09 21:01N 29°47' W 092°11'0 0.0
2017-Nov-09 20:31N 29°47' W 092°11'0 0.0
2017-Nov-09 20:01N 29°47' W 092°11'0 0.0
2017-Nov-09 19:30N 29°47' W 092°11'0 0.0
2017-Nov-09 19:01N 29°47' W 092°11'0 0.0
2017-Nov-09 18:30N 29°47' W 092°11'0 0.0
2017-Nov-09 18:01N 29°47' W 092°11'0 0.0
2017-Nov-09 17:31N 29°47' W 092°11'0 0.1
2017-Nov-09 17:01N 29°47' W 092°11'0 0.0
2017-Nov-09 16:31N 29°47' W 092°11'  
Track history (hours):
 
Tides and Currents Weather Stations Pressure Air Temp Water Temp Dewpoint Dewpoint Depression Visibility Wind Speed Wind Dir Waves Ship Positions

Marilyn M

Owner: Offshore Oil Services Inc., Clute, TX. More information available from US FCC via Universal Licensing System and Coast Guard Vessel Documentation Center.

Last reported at 2017-Nov-19 09:06 UTC. Time now 2017-Nov-21 02:36 UTC.
Position N 29°47' W 092°11'.

Length 45 m; draft 3 m.

Type: Passenger vessel. MMSI: 367637210.

Date/timePositionNaut miles runAvg speedWind from/ knotsBaromVisibWave heightAir tempDewpointWater temp
2017-Nov-19 09:06N 29°47' W 092°11'0 0.1
2017-Nov-19 09:01N 29°47' W 092°11'0 0.0
2017-Nov-19 08:30N 29°47' W 092°11'0 0.0
2017-Nov-19 08:00N 29°47' W 092°11'0 0.0
2017-Nov-19 07:31N 29°47' W 092°11'0 0.0
2017-Nov-19 07:01N 29°47' W 092°11'0 0.0
2017-Nov-19 06:31N 29°47' W 092°11'0 0.0
2017-Nov-19 06:00N 29°47' W 092°11'0 0.0
2017-Nov-19 05:31N 29°47' W 092°11'0 0.0
2017-Nov-19 05:00N 29°47' W 092°11'0 0.0
2017-Nov-19 04:30N 29°47' W 092°11'0 0.0
2017-Nov-19 04:00N 29°47' W 092°11'0 0.1
2017-Nov-19 03:30N 29°47' W 092°11'0 0.1
2017-Nov-19 03:00N 29°47' W 092°11'0 0.2
2017-Nov-19 02:30N 29°47' W 092°11'4 7.2
2017-Nov-19 02:00N 29°44' W 092°14'5 9.7
2017-Nov-19 01:31N 29°39' W 092°16'1 0.1
2017-Nov-18 14:33N 29°41' W 092°15'0 9.4
2017-Nov-18 14:30N 29°41' W 092°15'4 8.5
2017-Nov-18 14:00N 29°45' W 092°13'3 5.4
2017-Nov-18 13:31N 29°47' W 092°11'0 0.0
2017-Nov-18 13:01N 29°47' W 092°11'0 0.0
2017-Nov-18 12:30N 29°47' W 092°11'0 0.0
2017-Nov-18 12:01N 29°47' W 092°11'0 0.0
2017-Nov-18 11:30N 29°47' W 092°11'0 0.0
2017-Nov-18 09:07N 29°47' W 092°11'0 0.0
2017-Nov-18 09:00N 29°47' W 092°11'0 0.0
2017-Nov-18 08:30N 29°47' W 092°11'0 0.0
2017-Nov-18 08:00N 29°47' W 092°11'0 0.3
2017-Nov-18 07:30N 29°47' W 092°11'0 0.0
2017-Nov-18 07:00N 29°47' W 092°11'0 0.0
2017-Nov-18 06:30N 29°47' W 092°11'0 0.0
2017-Nov-18 06:00N 29°47' W 092°11'0 0.3
2017-Nov-18 05:30N 29°47' W 092°11'0 0.0
2017-Nov-18 05:00N 29°47' W 092°11'0 0.0
2017-Nov-18 04:30N 29°47' W 092°11'0 0.0
2017-Nov-18 04:00N 29°47' W 092°11'0 0.0
2017-Nov-18 03:30N 29°47' W 092°11'0 0.0
2017-Nov-18 03:00N 29°47' W 092°11'0 0.0
2017-Nov-18 02:30N 29°47' W 092°11'0 0.0
2017-Nov-18 02:00N 29°47' W 092°11'0 0.0
2017-Nov-18 01:30N 29°47' W 092°11'0 0.0
2017-Nov-18 01:00N 29°47' W 092°11'0 0.0
2017-Nov-18 00:30N 29°47' W 092°11'0 0.0
2017-Nov-18 00:00N 29°47' W 092°11'0 0.1
2017-Nov-17 23:30N 29°47' W 092°11'2 3.5
2017-Nov-17 23:00N 29°45' W 092°12'5 9.0
2017-Nov-17 22:30N 29°42' W 092°15'6 0.7
2017-Nov-17 13:29N 29°36' W 092°18'4 8.8
2017-Nov-17 13:00N 29°40' W 092°16'5 9.2
2017-Nov-17 12:31N 29°44' W 092°14'4 8.2
2017-Nov-17 12:00N 29°47' W 092°11'0 0.9
2017-Nov-17 11:31N 29°47' W 092°11'0 0.0
2017-Nov-17 11:01N 29°47' W 092°11'0 0.0
2017-Nov-17 10:31N 29°47' W 092°11'0 0.0
2017-Nov-17 10:00N 29°47' W 092°11'0 0.1
2017-Nov-17 09:05N 29°47' W 092°11'0 0.1
2017-Nov-17 09:00N 29°47' W 092°11'0 0.0
2017-Nov-17 08:30N 29°47' W 092°11'0 0.0
2017-Nov-17 08:01N 29°47' W 092°11'0 0.0
2017-Nov-17 07:30N 29°47' W 092°11'0 0.0
2017-Nov-17 07:01N 29°47' W 092°11'0 0.0
2017-Nov-17 06:30N 29°47' W 092°11'0 0.0
2017-Nov-17 06:00N 29°47' W 092°11'0 0.0
2017-Nov-17 05:30N 29°47' W 092°11'0 0.0
2017-Nov-17 05:01N 29°47' W 092°11'0 0.0
2017-Nov-17 04:30N 29°47' W 092°11'0 0.0
2017-Nov-17 04:01N 29°47' W 092°11'0 0.0
2017-Nov-17 03:30N 29°47' W 092°11'0 0.0
2017-Nov-17 03:00N 29°47' W 092°11'0 0.0
2017-Nov-17 02:31N 29°47' W 092°11'0 0.0
2017-Nov-17 02:00N 29°47' W 092°11'0 0.0
2017-Nov-17 01:30N 29°47' W 092°11'0 0.0
2017-Nov-17 01:00N 29°47' W 092°11'0 0.0
2017-Nov-17 00:30N 29°47' W 092°11'0 0.0
2017-Nov-17 00:00N 29°47' W 092°11'0 0.0
2017-Nov-16 23:31N 29°47' W 092°11'0 0.0
2017-Nov-16 16:40N 29°47' W 092°11'0 0.1
2017-Nov-16 16:31N 29°47' W 092°11'0 0.0
2017-Nov-16 16:01N 29°47' W 092°11'0 0.0
2017-Nov-16 15:31N 29°47' W 092°11'0 0.0
2017-Nov-16 15:01N 29°47' W 092°11'0 0.0
2017-Nov-16 14:30N 29°47' W 092°11'0 0.1
2017-Nov-16 14:01N 29°47' W 092°11'0 0.0
2017-Nov-16 13:31N 29°47' W 092°11'1 1.6
2017-Nov-16 13:01N 29°46' W 092°10'5 9.2
2017-Nov-16 12:30N 29°44' W 092°15'5 9.5
2017-Nov-16 12:00N 29°39' W 092°16'5 9.6
2017-Nov-16 11:30N 29°35' W 092°18'3 5.9
2017-Nov-16 10:58N 29°31' W 092°19'4 0.6
2017-Nov-16 03:36N 29°36' W 092°18'2 9.7
2017-Nov-16 03:27N 29°37' W 092°17'4 9.6
2017-Nov-16 03:00N 29°41' W 092°15'5 9.3
2017-Nov-16 02:30N 29°45' W 092°13'2 4.3
2017-Nov-16 02:00N 29°47' W 092°11'0 0.0
2017-Nov-16 01:30N 29°47' W 092°11'0 0.0
2017-Nov-16 01:00N 29°47' W 092°11'0 0.0
2017-Nov-16 00:30N 29°47' W 092°11'0 0.0
2017-Nov-16 00:00N 29°47' W 092°11'0 0.1
2017-Nov-15 23:30N 29°47' W 092°11'0 0.0
2017-Nov-14 14:26N 29°47' W 092°11'2 5.0
2017-Nov-14 14:00N 29°45' W 092°13'5 9.5
2017-Nov-14 13:30N 29°41' W 092°15'5 9.7
2017-Nov-14 13:00N 29°36' W 092°17'1 0.1
2017-Nov-14 05:29N 29°37' W 092°17'5 9.5
2017-Nov-14 04:59N 29°42' W 092°15'4 9.0
2017-Nov-14 04:29N 29°45' W 092°12'2 3.3
2017-Nov-14 03:59N 29°47' W 092°11'0 0.0
2017-Nov-14 03:29N 29°47' W 092°11'0 0.0
2017-Nov-14 02:59N 29°47' W 092°11'0 0.0
2017-Nov-14 02:29N 29°47' W 092°11'0 0.0
2017-Nov-14 01:59N 29°47' W 092°11'0 0.1
2017-Nov-14 01:30N 29°47' W 092°11'0 0.0
2017-Nov-14 01:00N 29°47' W 092°11'0 0.0
2017-Nov-14 00:30N 29°47' W 092°11'0 0.1
2017-Nov-13 23:59N 29°47' W 092°11'0 0.0
2017-Nov-13 23:29N 29°47' W 092°11'0 0.0
2017-Nov-13 22:59N 29°47' W 092°11'0 0.0
2017-Nov-13 22:30N 29°47' W 092°11'0 0.0
2017-Nov-13 22:00N 29°47' W 092°11'7 0.3
2017-Nov-12 21:46N 29°41' W 092°15'310.2
2017-Nov-12 21:29N 29°43' W 092°15'5 9.7
2017-Nov-12 21:00N 29°46' W 092°10'1 1.6
2017-Nov-12 20:30N 29°47' W 092°11'0 0.0
2017-Nov-11 08:49N 29°47' W 092°11'0 0.0
2017-Nov-11 08:29N 29°47' W 092°11'0 0.0
2017-Nov-11 05:25N 29°47' W 092°11'0 0.0
2017-Nov-11 04:59N 29°47' W 092°11'0 0.0
2017-Nov-11 04:29N 29°47' W 092°11'0 0.0
2017-Nov-11 03:59N 29°47' W 092°11'0 0.0
2017-Nov-11 03:29N 29°47' W 092°11'11 0.9
2017-Nov-10 15:11N 29°37' W 092°16'3 9.1
2017-Nov-10 14:54N 29°40' W 092°15'4 9.7
2017-Nov-10 14:30N 29°43' W 092°15'5 9.7
2017-Nov-10 14:00N 29°46' W 092°10'1 1.6
2017-Nov-10 13:30N 29°47' W 092°11'0 0.0
2017-Nov-10 13:00N 29°47' W 092°11'0 0.0
2017-Nov-10 12:30N 29°47' W 092°11'0 0.0
2017-Nov-10 12:00N 29°47' W 092°11'0 0.0
2017-Nov-10 11:30N 29°47' W 092°11'0 0.0
2017-Nov-10 11:00N 29°47' W 092°11'0 0.0
2017-Nov-10 09:46N 29°47' W 092°11'0 0.0
2017-Nov-10 09:30N 29°47' W 092°11'1 1.6
2017-Nov-10 09:00N 29°46' W 092°11'5 9.6
2017-Nov-10 08:30N 29°43' W 092°15'5 9.4
2017-Nov-10 08:01N 29°38' W 092°16'2 0.2
2017-Nov-09 23:33N 29°36' W 092°17'0 9.7
2017-Nov-09 23:30N 29°37' W 092°17'5 9.3
2017-Nov-09 23:01N 29°41' W 092°15'4 8.6
2017-Nov-09 22:31N 29°45' W 092°13'2 4.7
2017-Nov-09 22:01N 29°47' W 092°11'0 0.0
2017-Nov-09 21:31N 29°47' W 092°11'0 0.0
2017-Nov-09 21:01N 29°47' W 092°11'0 0.0
2017-Nov-09 20:31N 29°47' W 092°11'0 0.0
2017-Nov-09 20:01N 29°47' W 092°11'0 0.0
2017-Nov-09 19:30N 29°47' W 092°11'0 0.0
2017-Nov-09 19:01N 29°47' W 092°11'0 0.0
2017-Nov-09 18:30N 29°47' W 092°11'0 0.0
2017-Nov-09 18:01N 29°47' W 092°11'0 0.0
2017-Nov-09 17:31N 29°47' W 092°11'0 0.1
2017-Nov-09 17:01N 29°47' W 092°11'0 0.0
2017-Nov-09 16:31N 29°47' W 092°11'  

Dump ship's entire track history